Strona główna
METAR-TAF:

METAR-TAF

Lotnisko :

Port lotniczy Satu Mare

Satu Mare, Rumunia

Szerokość geograficzna: 47-48N, Długość geograficzna: 022-53E, wysokość: 123 m

Aktualna obserwacja pogody

Raport powstał 16 minut temu, godzina 14:30 UTC
Wiatr 9 kt od północno-północny wschód, zmienny między północ i północny wschód
Temperatura 17°C
Wilgotność 17%
Ciśnienie 1024 hPa
Widzialność 10 km lub więcej
Brak chmur poniżej 1500 m i brak chmur cumulonimbus

METAR: LRSM 231430Z 03009KT 350V050 CAVOK 17/M08 Q1024

czas: 16:46 (14:46 UTC)

Prognoza

Raport powstał 46 minut temu, godzina 14:00 UTC
Prognoza ważna od 23 godzina 15 UTC do 23 godzina 24 UTC
Wiatr 4 kt z kierunków zmiennych
Widzialność 10 km lub więcej
Brak chmur poniżej 1500 m i brak chmur cumulonimbus

TAF: LRSM 231400Z 2315/2324 VRB04KT CAVOK

Obserwacja i prognoza pogody dla ponad 4000 lotnisk (raport METAR i TAF).

Dostępne stacje oznaczono żółtymi i czerwonymi punktami na mapie.

Najedź kursorem aby zobaczyć nazwę stacji.

Kliknij aby zobaczyć obserwacje i prognozy pogody.

Aby zmienić mapę: kliknij na zielony przycisk z czarnym krzyżykiem, aby powiększyć; na zielony przycisk z myślnikiem, aby pomniejszyć; na zielone strzałki, aby przejść do map sąsiednich.


METAR-TAF: